createdAt,value
2019-03-17T00:01:31.128Z,5.50
2019-03-17T00:04:03.081Z,5.51
2019-03-17T00:06:35.073Z,5.54
2019-03-17T00:09:08.558Z,5.56
2019-03-17T00:11:40.445Z,5.56
2019-03-17T00:14:12.607Z,5.57
2019-03-17T00:16:44.464Z,5.59
2019-03-17T00:19:16.405Z,5.59
2019-03-17T00:21:48.363Z,5.59
2019-03-17T00:24:20.895Z,5.61
2019-03-17T00:26:52.765Z,5.61
2019-03-17T00:29:25.096Z,5.58
2019-03-17T00:31:56.968Z,5.55
2019-03-17T00:34:28.983Z,5.54
2019-03-17T00:37:00.820Z,5.52
2019-03-17T00:39:32.830Z,5.50
2019-03-17T00:42:04.675Z,5.49
2019-03-17T00:44:36.891Z,5.48
2019-03-17T00:47:10.728Z,5.52
2019-03-17T00:49:42.237Z,5.47
2019-03-17T00:52:14.098Z,5.48
2019-03-17T00:54:45.904Z,5.49
2019-03-17T00:57:17.784Z,5.46
2019-03-17T00:59:49.961Z,5.48
2019-03-17T01:02:21.814Z,5.44
2019-03-17T01:04:56.409Z,5.42
2019-03-17T01:07:27.584Z,5.40
2019-03-17T01:09:59.420Z,5.42
2019-03-17T01:12:31.274Z,5.42
2019-03-17T01:15:03.371Z,5.43
2019-03-17T01:17:35.276Z,5.46
2019-03-17T01:20:07.741Z,5.46
2019-03-17T01:22:39.563Z,5.47
2019-03-17T01:25:11.712Z,5.46
2019-03-17T01:27:43.693Z,5.47
2019-03-17T01:30:15.867Z,5.47
2019-03-17T01:32:47.736Z,5.46
2019-03-17T01:35:19.583Z,5.44
2019-03-17T01:37:51.530Z,5.42
2019-03-17T01:40:23.415Z,5.40
2019-03-17T01:42:55.264Z,5.39
2019-03-17T01:45:27.318Z,5.41
2019-03-17T01:47:59.133Z,5.40
2019-03-17T01:50:30.987Z,5.37
2019-03-17T01:53:02.810Z,5.38
2019-03-17T01:55:34.698Z,5.40
2019-03-17T01:58:06.562Z,5.38
2019-03-17T02:00:38.832Z,5.37
2019-03-17T02:03:10.754Z,5.40
2019-03-17T02:05:42.560Z,5.41
2019-03-17T02:08:14.394Z,5.42
2019-03-17T02:10:46.294Z,5.40
2019-03-17T02:13:18.121Z,5.44
2019-03-17T02:15:50.424Z,5.41
2019-03-17T02:18:22.354Z,5.43
2019-03-17T02:20:54.186Z,5.48
2019-03-17T02:23:26.090Z,5.52
2019-03-17T02:25:58.096Z,5.49
2019-03-17T02:28:29.948Z,5.53
2019-03-17T02:31:02.061Z,5.48
2019-03-17T02:33:33.912Z,5.51
2019-03-17T02:36:05.738Z,5.49
2019-03-17T02:38:38.646Z,5.56
2019-03-17T02:41:10.452Z,5.58
2019-03-17T02:43:42.310Z,5.61
2019-03-17T02:46:14.371Z,5.65
2019-03-17T02:48:46.182Z,5.63
2019-03-17T02:51:18.068Z,5.68
2019-03-17T02:53:49.902Z,5.61
2019-03-17T02:56:21.705Z,5.70
2019-03-17T02:58:53.631Z,5.65
2019-03-17T03:01:25.734Z,5.63
2019-03-17T03:03:57.556Z,5.70
2019-03-17T03:06:29.393Z,5.67
2019-03-17T03:09:01.205Z,5.74
2019-03-17T03:11:34.392Z,5.82
2019-03-17T03:14:06.189Z,5.86
2019-03-17T03:16:38.363Z,5.87
2019-03-17T03:19:10.279Z,5.89
2019-03-17T03:21:42.232Z,5.92
2019-03-17T03:24:14.113Z,5.95
2019-03-17T03:26:46.317Z,5.97
2019-03-17T03:29:18.505Z,5.99
2019-03-17T03:31:50.513Z,6.03
2019-03-17T03:34:22.354Z,6.07
2019-03-17T03:36:54.184Z,6.09
2019-03-17T03:39:26.081Z,6.12
2019-03-17T03:41:57.924Z,6.14
2019-03-17T03:44:29.735Z,6.16
2019-03-17T03:47:01.698Z,6.09
2019-03-17T03:49:33.565Z,6.17
2019-03-17T03:52:05.391Z,6.22
2019-03-17T03:54:38.324Z,6.25
2019-03-17T03:57:10.148Z,6.27
2019-03-17T03:59:41.998Z,6.28
2019-03-17T04:02:13.911Z,6.32
2019-03-17T04:04:45.821Z,6.32
2019-03-17T04:07:17.670Z,6.33
2019-03-17T04:09:49.503Z,6.37
2019-03-17T04:12:21.508Z,6.36
2019-03-17T04:14:53.351Z,6.28
2019-03-17T04:17:25.217Z,6.28
2019-03-17T04:19:58.380Z,6.36
2019-03-17T04:22:30.273Z,6.42
2019-03-17T04:25:02.182Z,6.33
2019-03-17T04:27:34.318Z,6.42
2019-03-17T04:30:06.803Z,6.50
2019-03-17T04:32:38.900Z,6.49
2019-03-17T04:35:10.800Z,6.47
2019-03-17T04:37:42.583Z,6.45
2019-03-17T04:40:14.455Z,6.57
2019-03-17T04:43:05.327Z,6.57
2019-03-17T04:45:37.198Z,6.53
2019-03-17T04:48:09.515Z,6.57
2019-03-17T04:50:41.607Z,6.63
2019-03-17T04:53:13.465Z,6.72
2019-03-17T04:55:45.305Z,6.79
2019-03-17T04:58:17.171Z,6.79
2019-03-17T05:00:49.082Z,6.84
2019-03-17T05:03:21.122Z,6.82
2019-03-17T05:05:52.993Z,6.92
2019-03-17T05:08:24.838Z,6.90
2019-03-17T05:10:56.873Z,6.90
2019-03-17T05:13:28.679Z,6.77
2019-03-17T05:16:00.547Z,6.76
2019-03-17T05:18:32.579Z,6.76
2019-03-17T05:21:04.407Z,6.84
2019-03-17T05:23:36.228Z,6.82
2019-03-17T05:26:08.093Z,6.84
2019-03-17T05:28:40.274Z,6.95
2019-03-17T05:31:12.133Z,6.99
2019-03-17T05:33:44.225Z,7.08
2019-03-17T05:36:16.045Z,7.06
2019-03-17T05:38:47.965Z,7.16
2019-03-17T05:41:19.848Z,7.24
2019-03-17T05:43:51.696Z,7.11
2019-03-17T05:46:23.513Z,6.99
2019-03-17T05:48:55.407Z,7.06
2019-03-17T05:51:27.243Z,7.08
2019-03-17T05:54:00.071Z,7.14
2019-03-17T05:56:31.893Z,7.21
2019-03-17T05:59:03.751Z,7.11
2019-03-17T06:01:35.627Z,7.13
2019-03-17T06:04:07.678Z,7.23
2019-03-17T06:06:39.557Z,7.29
2019-03-17T06:09:11.642Z,7.30
2019-03-17T06:11:43.714Z,7.29
2019-03-17T06:14:15.578Z,7.43
2019-03-17T06:16:47.686Z,7.43
2019-03-17T06:19:19.689Z,7.52
2019-03-17T06:21:51.590Z,7.52
2019-03-17T06:24:23.399Z,7.52
2019-03-17T06:26:55.287Z,7.70
2019-03-17T06:29:27.396Z,7.79
2019-03-17T06:31:59.548Z,7.83
2019-03-17T06:34:31.712Z,7.90
2019-03-17T06:37:03.598Z,7.95
2019-03-17T06:39:35.667Z,8.07
2019-03-17T06:42:07.606Z,8.13
2019-03-17T06:44:39.545Z,8.24
2019-03-17T06:47:11.528Z,8.27
2019-03-17T06:49:44.406Z,8.27
2019-03-17T06:52:16.329Z,8.42
2019-03-17T06:54:48.288Z,8.34
2019-03-17T06:57:20.239Z,8.45
2019-03-17T06:59:52.247Z,8.49
2019-03-17T07:02:24.240Z,8.49
2019-03-17T07:04:56.263Z,8.49
2019-03-17T07:07:28.234Z,8.46
2019-03-17T07:10:00.134Z,8.48
2019-03-17T07:12:32.087Z,8.54
2019-03-17T07:15:04.134Z,8.90
2019-03-17T07:17:36.096Z,8.89
2019-03-17T07:20:10.272Z,8.98
2019-03-17T07:22:42.173Z,8.87
2019-03-17T07:25:14.141Z,8.95
2019-03-17T07:27:46.209Z,9.07
2019-03-17T07:30:18.627Z,9.14
2019-03-17T07:32:50.633Z,9.24
2019-03-17T07:35:22.943Z,9.13
2019-03-17T07:37:57.125Z,9.28
2019-03-17T07:40:28.576Z,9.32
2019-03-17T07:43:00.677Z,9.31
2019-03-17T07:45:32.616Z,9.62
2019-03-17T07:48:04.913Z,9.71
2019-03-17T07:50:37.521Z,9.76
2019-03-17T07:53:09.870Z,9.80
2019-03-17T07:55:41.973Z,9.96
2019-03-17T07:58:14.003Z,10.05
2019-03-17T08:00:46.225Z,10.22
2019-03-17T08:03:18.267Z,10.44
2019-03-17T08:05:50.648Z,10.65
2019-03-17T08:08:22.780Z,10.75
2019-03-17T08:10:54.907Z,10.79
2019-03-17T08:13:27.048Z,10.67
2019-03-17T08:15:58.938Z,11.00
2019-03-17T08:18:32.236Z,11.00
2019-03-17T08:21:04.612Z,11.16
2019-03-17T08:23:36.836Z,10.89
2019-03-17T08:26:09.121Z,10.85
2019-03-17T08:28:41.358Z,10.82
2019-03-17T08:31:13.648Z,10.66
2019-03-17T08:33:45.801Z,10.85
2019-03-17T08:36:18.039Z,10.85
2019-03-17T08:38:50.449Z,11.22
2019-03-17T08:41:22.513Z,10.90
2019-03-17T08:43:54.760Z,10.83
2019-03-17T08:46:27.074Z,11.25
2019-03-17T08:48:59.174Z,11.39
2019-03-17T08:51:31.433Z,11.53
2019-03-17T08:54:03.633Z,11.79
2019-03-17T08:56:35.755Z,11.91
2019-03-17T08:59:07.785Z,12.25
2019-03-17T09:01:39.680Z,12.43
2019-03-17T09:04:11.697Z,12.57
2019-03-17T09:06:43.949Z,12.62
2019-03-17T09:09:15.870Z,12.21
2019-03-17T09:11:48.107Z,12.48
2019-03-17T09:14:20.683Z,12.79
2019-03-17T09:16:53.464Z,12.32
2019-03-17T09:19:25.885Z,12.26
2019-03-17T09:21:58.330Z,12.46
2019-03-17T09:24:30.904Z,12.66
2019-03-17T09:27:04.650Z,12.75
2019-03-17T09:29:37.526Z,12.69
2019-03-17T09:32:10.593Z,12.95
2019-03-17T09:34:42.766Z,13.18
2019-03-17T09:37:15.543Z,13.34
2019-03-17T09:39:47.554Z,13.52
2019-03-17T09:42:19.942Z,13.51
2019-03-17T09:44:52.760Z,13.65
2019-03-17T09:47:25.577Z,13.16
2019-03-17T09:49:58.636Z,12.67
2019-03-17T09:52:32.108Z,12.89
2019-03-17T09:55:06.772Z,13.23
2019-03-17T09:57:39.573Z,13.79
2019-03-17T10:00:14.295Z,13.96
2019-03-17T10:02:47.209Z,14.15
2019-03-17T10:05:19.966Z,13.98
2019-03-17T10:07:53.401Z,12.84
2019-03-17T10:10:26.294Z,12.64
2019-03-17T10:12:59.209Z,12.48
2019-03-17T10:15:32.771Z,12.72
2019-03-17T10:18:05.916Z,13.03
2019-03-17T10:20:39.138Z,13.14
2019-03-17T10:23:12.599Z,13.30
2019-03-17T10:25:45.594Z,13.46
2019-03-17T10:28:18.408Z,13.46
2019-03-17T10:30:51.672Z,13.51
2019-03-17T10:33:24.938Z,13.37
2019-03-17T10:35:57.785Z,13.38
2019-03-17T10:38:30.613Z,13.71
2019-03-17T10:41:03.408Z,13.91
2019-03-17T10:43:36.433Z,13.46
2019-03-17T10:46:09.402Z,13.75
2019-03-17T10:48:42.348Z,14.05
2019-03-17T10:51:15.337Z,14.30
2019-03-17T10:53:48.992Z,14.73
2019-03-17T10:56:22.394Z,14.06
2019-03-17T10:58:55.115Z,14.16
2019-03-17T11:01:27.705Z,14.31
2019-03-17T11:04:00.260Z,14.26
2019-03-17T11:06:32.327Z,14.07
2019-03-17T11:09:05.514Z,13.80
2019-03-17T11:11:37.688Z,13.75
2019-03-17T11:14:09.686Z,13.68
2019-03-17T11:16:41.903Z,13.79
2019-03-17T11:19:14.343Z,13.75
2019-03-17T11:21:46.857Z,13.88
2019-03-17T11:24:19.762Z,14.24
2019-03-17T11:26:51.813Z,14.34
2019-03-17T11:29:24.247Z,14.48
2019-03-17T11:31:56.471Z,14.41
2019-03-17T11:34:29.623Z,14.36
2019-03-17T11:37:01.996Z,14.61
2019-03-17T11:39:38.050Z,14.79
2019-03-17T11:42:08.217Z,14.71
2019-03-17T11:44:40.368Z,14.85
2019-03-17T11:47:12.649Z,14.92
2019-03-17T11:49:46.164Z,15.13
2019-03-17T11:52:19.593Z,15.09
2019-03-17T11:54:52.743Z,15.38
2019-03-17T11:57:24.762Z,15.72
2019-03-17T11:59:57.355Z,16.13
2019-03-17T12:02:29.703Z,16.32
2019-03-17T12:05:02.053Z,16.08
2019-03-17T12:07:34.302Z,16.03
2019-03-17T12:10:07.672Z,16.08
2019-03-17T12:12:39.649Z,16.16
2019-03-17T12:15:14.712Z,15.94
2019-03-17T12:17:46.903Z,15.94
2019-03-17T12:20:18.950Z,16.26
2019-03-17T12:22:51.194Z,16.27
2019-03-17T12:25:23.882Z,16.44
2019-03-17T12:27:56.155Z,16.40
2019-03-17T12:30:28.690Z,16.61
2019-03-17T12:33:01.258Z,17.12
2019-03-17T12:35:33.584Z,17.34
2019-03-17T12:38:05.682Z,17.13
2019-03-17T12:40:38.758Z,16.68
2019-03-17T12:43:10.793Z,16.56
2019-03-17T12:45:42.721Z,17.02
2019-03-17T12:48:15.774Z,17.50
2019-03-17T12:50:47.939Z,18.31
2019-03-17T12:53:20.242Z,19.30
2019-03-17T12:55:52.599Z,21.87
2019-03-17T12:58:24.773Z,23.50
2019-03-17T13:00:57.001Z,24.78
2019-03-17T13:03:29.071Z,25.94
2019-03-17T13:06:01.625Z,24.57
2019-03-17T13:08:34.146Z,21.56
2019-03-17T13:11:06.274Z,20.92
2019-03-17T13:13:38.420Z,21.26
2019-03-17T13:16:10.808Z,22.27
2019-03-17T13:18:43.341Z,22.82
2019-03-17T13:21:15.641Z,23.32
2019-03-17T13:23:48.552Z,23.43
2019-03-17T13:26:20.986Z,26.01
2019-03-17T13:28:53.215Z,25.80
2019-03-17T13:31:25.708Z,25.87
2019-03-17T13:33:59.224Z,26.53
2019-03-17T13:36:32.208Z,24.35
2019-03-17T13:39:05.203Z,22.43
2019-03-17T13:41:37.745Z,22.28
2019-03-17T13:44:09.867Z,23.06
2019-03-17T13:46:42.025Z,22.72
2019-03-17T13:49:14.384Z,24.32
2019-03-17T13:51:46.362Z,23.03
2019-03-17T13:54:18.489Z,21.44
2019-03-17T13:56:50.609Z,20.91
2019-03-17T13:59:23.279Z,21.33
2019-03-17T14:01:55.405Z,22.55
2019-03-17T14:04:27.531Z,22.99
2019-03-17T14:06:59.574Z,21.25
2019-03-17T14:09:31.591Z,21.20
2019-03-17T14:12:03.915Z,21.33
2019-03-17T14:14:36.271Z,23.05
2019-03-17T14:17:08.722Z,23.26
2019-03-17T14:19:41.014Z,23.23
2019-03-17T14:22:13.139Z,25.96
2019-03-17T14:24:45.244Z,26.26
2019-03-17T14:27:17.511Z,25.64
2019-03-17T14:29:49.576Z,24.08
2019-03-17T14:32:21.555Z,23.46
2019-03-17T14:34:53.461Z,22.59
2019-03-17T14:37:25.659Z,23.11
2019-03-17T14:39:57.591Z,23.24
2019-03-17T14:42:31.112Z,24.58
2019-03-17T14:45:03.027Z,25.72
2019-03-17T14:47:35.005Z,26.05
2019-03-17T14:50:08.883Z,25.82
2019-03-17T14:52:40.954Z,26.96
2019-03-17T14:55:13.045Z,26.59
2019-03-17T14:57:45.367Z,27.26
2019-03-17T15:00:19.783Z,24.72
2019-03-17T15:02:52.271Z,26.90
2019-03-17T15:05:25.365Z,26.90
2019-03-17T15:07:57.756Z,26.68
2019-03-17T15:10:29.838Z,24.30
2019-03-17T15:13:02.245Z,23.28
2019-03-17T15:15:34.201Z,23.29
2019-03-17T15:18:06.162Z,23.31
2019-03-17T15:20:38.165Z,24.99
2019-03-17T15:23:10.218Z,24.09
2019-03-17T15:25:42.276Z,24.70
2019-03-17T15:28:14.685Z,23.72
2019-03-17T15:31:00.546Z,26.03
2019-03-17T15:33:20.214Z,27.20
2019-03-17T15:35:52.218Z,27.32
2019-03-17T15:38:24.292Z,27.26
2019-03-17T15:40:56.351Z,26.64
2019-03-17T15:43:28.701Z,25.95
2019-03-17T15:46:02.346Z,25.31
2019-03-17T15:48:34.337Z,22.23
2019-03-17T15:51:19.170Z,20.65
2019-03-17T15:53:39.966Z,20.35
2019-03-17T15:56:11.973Z,19.97
2019-03-17T15:58:44.216Z,20.02
2019-03-17T16:01:16.253Z,19.44
2019-03-17T16:03:48.715Z,19.41
2019-03-17T16:06:20.892Z,19.40
2019-03-17T16:08:53.261Z,18.95
2019-03-17T16:11:31.185Z,18.90
2019-03-17T16:14:00.037Z,18.90
2019-03-17T16:16:32.384Z,18.78
2019-03-17T16:19:04.660Z,18.55
2019-03-17T16:21:36.841Z,18.30
2019-03-17T16:24:08.836Z,18.02
2019-03-17T16:26:40.809Z,17.69
2019-03-17T16:29:13.159Z,17.33
2019-03-17T16:31:45.299Z,17.11
2019-03-17T16:34:17.548Z,16.97
2019-03-17T16:36:49.850Z,16.78
2019-03-17T16:39:22.274Z,16.60
2019-03-17T16:41:54.444Z,16.40
2019-03-17T16:44:26.708Z,16.19
2019-03-17T16:46:58.708Z,16.01
2019-03-17T16:49:30.727Z,15.80
2019-03-17T16:52:02.989Z,15.61
2019-03-17T16:54:34.968Z,15.46
2019-03-17T16:57:07.067Z,15.32
2019-03-17T16:59:40.409Z,15.19
2019-03-17T17:02:13.051Z,15.06
2019-03-17T17:04:45.213Z,14.93
2019-03-17T17:07:17.210Z,14.80
2019-03-17T17:09:49.567Z,14.70
2019-03-17T17:12:21.608Z,14.63
2019-03-17T17:14:54.068Z,14.53
2019-03-17T17:17:26.218Z,14.44
2019-03-17T17:19:58.532Z,14.36
2019-03-17T17:22:31.920Z,14.29
2019-03-17T17:25:04.493Z,14.16
2019-03-17T17:27:36.588Z,14.06
2019-03-17T17:30:11.023Z,13.98
2019-03-17T17:32:43.409Z,13.92
2019-03-17T17:35:15.614Z,13.85
2019-03-17T17:37:47.556Z,13.82
2019-03-17T17:40:19.969Z,13.79
2019-03-17T17:42:52.092Z,13.76
2019-03-17T17:45:24.709Z,13.66
2019-03-17T17:47:57.002Z,13.56
2019-03-17T17:50:29.621Z,13.50
2019-03-17T17:53:01.659Z,13.42
2019-03-17T17:55:34.120Z,13.36
2019-03-17T17:58:06.225Z,13.28
2019-03-17T18:00:40.992Z,13.15
2019-03-17T18:03:13.094Z,13.04
2019-03-17T18:05:45.166Z,12.93
2019-03-17T18:08:17.820Z,12.84
2019-03-17T18:10:50.451Z,12.80
2019-03-17T18:13:22.848Z,12.77
2019-03-17T18:15:55.170Z,12.73
2019-03-17T18:18:27.309Z,12.66
2019-03-17T18:20:59.852Z,12.61
2019-03-17T18:23:33.862Z,12.51
2019-03-17T18:26:07.144Z,12.48
2019-03-17T18:28:40.071Z,12.46
2019-03-17T18:31:12.910Z,12.41
2019-03-17T18:33:45.271Z,12.37
2019-03-17T18:36:18.239Z,12.31
2019-03-17T18:38:51.389Z,12.27
2019-03-17T18:41:24.309Z,12.22
2019-03-17T18:43:57.206Z,12.15
2019-03-17T18:46:29.882Z,12.14
2019-03-17T18:49:02.286Z,12.11
2019-03-17T18:51:35.093Z,12.06
2019-03-17T18:54:08.236Z,11.98
2019-03-17T18:56:40.730Z,11.92
2019-03-17T18:59:13.340Z,11.86
2019-03-17T19:01:46.248Z,11.80
2019-03-17T19:04:18.620Z,11.72
2019-03-17T19:06:51.240Z,11.64
2019-03-17T19:09:24.017Z,11.54
2019-03-17T19:11:56.817Z,11.46
2019-03-17T19:14:29.284Z,11.39
2019-03-17T19:17:02.307Z,11.33
2019-03-17T19:19:34.824Z,11.27
2019-03-17T19:22:07.257Z,11.20
2019-03-17T19:24:40.590Z,11.15
2019-03-17T19:27:12.793Z,11.07
2019-03-17T19:29:45.236Z,11.07
2019-03-17T19:32:18.069Z,11.03
2019-03-17T19:34:50.462Z,11.01
2019-03-17T19:37:22.900Z,10.97
2019-03-17T19:39:54.960Z,10.95
2019-03-17T19:42:27.806Z,10.95
2019-03-17T19:45:00.067Z,10.98
2019-03-17T19:47:32.311Z,10.98
2019-03-17T19:50:04.946Z,10.97
2019-03-17T19:52:37.461Z,10.96
2019-03-17T19:55:10.366Z,10.94
2019-03-17T19:57:42.592Z,10.91
2019-03-17T20:00:16.309Z,10.89
2019-03-17T20:02:48.919Z,10.85
2019-03-17T20:05:21.160Z,10.80
2019-03-17T20:07:53.217Z,10.68
2019-03-17T20:10:25.439Z,10.56
2019-03-17T20:13:10.287Z,10.45
2019-03-17T20:15:31.584Z,10.34
2019-03-17T20:18:04.917Z,10.24
2019-03-17T20:20:36.994Z,10.14
2019-03-17T20:23:09.177Z,10.03
2019-03-17T20:25:41.279Z,9.89
2019-03-17T20:28:13.568Z,9.79
2019-03-17T20:30:45.681Z,9.74
2019-03-17T20:33:18.141Z,9.67
2019-03-17T20:35:50.426Z,9.58
2019-03-17T20:38:23.114Z,9.48
2019-03-17T20:40:55.858Z,9.40
2019-03-17T20:43:34.868Z,9.31
2019-03-17T20:46:02.241Z,9.26
2019-03-17T20:48:35.690Z,9.16
2019-03-17T20:51:08.530Z,9.08
2019-03-17T20:53:41.517Z,9.01
2019-03-17T20:56:15.159Z,8.94
2019-03-17T20:58:48.339Z,8.87
2019-03-17T21:01:20.984Z,8.82
2019-03-17T21:03:54.277Z,8.79
2019-03-17T21:06:26.905Z,8.75
2019-03-17T21:09:00.017Z,8.78
2019-03-17T21:11:33.577Z,8.88
2019-03-17T21:14:06.521Z,8.98
2019-03-17T21:16:39.584Z,9.14
2019-03-17T21:19:13.130Z,9.19
2019-03-17T21:21:46.312Z,9.20
2019-03-17T21:24:19.237Z,9.23
2019-03-17T21:26:52.127Z,9.25
2019-03-17T21:29:25.424Z,9.24
2019-03-17T21:31:59.265Z,9.22
2019-03-17T21:34:32.620Z,9.12
2019-03-17T21:37:05.813Z,8.98
2019-03-17T21:39:38.831Z,8.88
2019-03-17T21:42:11.818Z,8.80
2019-03-17T21:44:45.026Z,8.78
2019-03-17T21:47:17.983Z,8.76
2019-03-17T21:49:50.682Z,8.75
2019-03-17T21:52:23.526Z,8.76
2019-03-17T21:54:56.102Z,8.76
2019-03-17T21:57:28.698Z,8.77
2019-03-17T22:00:01.361Z,8.77
2019-03-17T22:02:34.434Z,8.77
2019-03-17T22:05:07.564Z,8.78
2019-03-17T22:07:49.620Z,8.96
2019-03-17T22:10:16.257Z,9.03
2019-03-17T22:12:50.091Z,9.38
2019-03-17T22:15:23.150Z,9.84
2019-03-17T22:17:56.631Z,10.26
2019-03-17T22:20:29.591Z,10.41
2019-03-17T22:23:02.537Z,10.32
2019-03-17T22:25:35.369Z,10.29
2019-03-17T22:28:08.934Z,10.26
2019-03-17T22:30:42.159Z,10.15
2019-03-17T22:33:15.090Z,10.03
2019-03-17T22:35:47.888Z,9.92
2019-03-17T22:38:20.857Z,9.83
2019-03-17T22:40:54.298Z,9.79
2019-03-17T22:43:27.427Z,9.84
2019-03-17T22:46:00.891Z,9.74
2019-03-17T22:48:33.786Z,9.71
2019-03-17T22:51:07.132Z,9.65
2019-03-17T22:53:40.303Z,9.49
2019-03-17T22:56:13.609Z,9.45
2019-03-17T22:58:46.446Z,9.27
2019-03-17T23:01:19.580Z,9.35
2019-03-17T23:03:52.337Z,9.19
2019-03-17T23:06:25.229Z,9.24
2019-03-17T23:08:58.034Z,9.24
2019-03-17T23:11:31.246Z,9.31
2019-03-17T23:14:04.316Z,9.17
2019-03-17T23:16:37.117Z,9.19
2019-03-17T23:19:09.779Z,9.12
2019-03-17T23:21:42.761Z,9.12
2019-03-17T23:24:15.534Z,9.08
2019-03-17T23:26:48.425Z,9.05
2019-03-17T23:29:21.168Z,9.01
2019-03-17T23:31:54.453Z,9.07
2019-03-17T23:34:27.087Z,9.09
2019-03-17T23:37:00.131Z,9.10
2019-03-17T23:39:32.617Z,9.11
2019-03-17T23:42:06.322Z,9.06
2019-03-17T23:44:48.608Z,9.05
2019-03-17T23:47:13.180Z,8.98
2019-03-17T23:49:46.273Z,8.94
2019-03-17T23:52:18.976Z,8.96
2019-03-17T23:54:51.244Z,9.00
2019-03-17T23:57:23.515Z,8.90
2019-03-17T23:59:55.761Z,8.88
